sensor_id;sensor_type;location;lat;lon;timestamp;pressure;altitude;pressure_sealevel;temperature;humidity
22000;BME280;11164;48.818;2.322;2023-04-15T00:00:33;99517.78;;;12.08;46.36
22000;BME280;11164;48.818;2.322;2023-04-15T00:02:59;99515.66;;;12.10;46.23
22000;BME280;11164;48.818;2.322;2023-04-15T00:05:28;99510.25;;;12.10;46.32
22000;BME280;11164;48.818;2.322;2023-04-15T00:07:54;99506.59;;;12.16;46.26
22000;BME280;11164;48.818;2.322;2023-04-15T00:10:19;99495.22;;;12.26;45.90
22000;BME280;11164;48.818;2.322;2023-04-15T00:12:44;99504.75;;;12.16;45.95
22000;BME280;11164;48.818;2.322;2023-04-15T00:15:10;99489.94;;;12.19;46.08
22000;BME280;11164;48.818;2.322;2023-04-15T00:17:36;99482.91;;;12.18;46.16
22000;BME280;11164;48.818;2.322;2023-04-15T00:20:03;99483.47;;;12.20;46.31
22000;BME280;11164;48.818;2.322;2023-04-15T00:22:30;99483.47;;;12.20;46.17
22000;BME280;11164;48.818;2.322;2023-04-15T00:24:56;99478.06;;;12.20;46.37
22000;BME280;11164;48.818;2.322;2023-04-15T00:27:22;99473.47;;;12.21;46.09
22000;BME280;11164;48.818;2.322;2023-04-15T00:29:47;99467.84;;;12.10;46.55
22000;BME280;11164;48.818;2.322;2023-04-15T00:32:12;99470.66;;;12.04;46.41
22000;BME280;11164;48.818;2.322;2023-04-15T00:34:37;99470.19;;;11.95;46.67
22000;BME280;11164;48.818;2.322;2023-04-15T00:37:03;99469.16;;;11.96;46.71
22000;BME280;11164;48.818;2.322;2023-04-15T00:39:28;99467.38;;;12.02;46.63
22000;BME280;11164;48.818;2.322;2023-04-15T00:41:54;99448.47;;;12.02;46.20
22000;BME280;11164;48.818;2.322;2023-04-15T00:44:19;99461.88;;;12.08;46.19
22000;BME280;11164;48.818;2.322;2023-04-15T00:46:50;99462.44;;;12.10;46.34
22000;BME280;11164;48.818;2.322;2023-04-15T00:49:16;99453.16;;;12.18;46.16
22000;BME280;11164;48.818;2.322;2023-04-15T00:51:42;99459.03;;;12.15;45.94
22000;BME280;11164;48.818;2.322;2023-04-15T00:54:08;99456.91;;;12.29;45.82
22000;BME280;11164;48.818;2.322;2023-04-15T00:56:35;99457.63;;;12.12;46.30
22000;BME280;11164;48.818;2.322;2023-04-15T00:59:02;99453.06;;;12.01;46.38
22000;BME280;11164;48.818;2.322;2023-04-15T01:01:28;99443.31;;;12.00;46.34
22000;BME280;11164;48.818;2.322;2023-04-15T01:03:55;99444.59;;;12.09;45.97
22000;BME280;11164;48.818;2.322;2023-04-15T01:06:22;99444.22;;;12.06;46.16
22000;BME280;11164;48.818;2.322;2023-04-15T01:08:47;99443.28;;;12.12;45.81
22000;BME280;11164;48.818;2.322;2023-04-15T01:11:13;99448.69;;;12.12;45.77
22000;BME280;11164;48.818;2.322;2023-04-15T01:13:39;99451.63;;;12.10;45.81
22000;BME280;11164;48.818;2.322;2023-04-15T01:16:06;99446.84;;;12.00;45.94
22000;BME280;11164;48.818;2.322;2023-04-15T01:18:32;99447.53;;;12.08;45.72
22000;BME280;11164;48.818;2.322;2023-04-15T01:21:00;99443.06;;;12.13;45.38
22000;BME280;11164;48.818;2.322;2023-04-15T01:23:26;99445.66;;;12.08;45.75
22000;BME280;11164;48.818;2.322;2023-04-15T01:25:52;99435.66;;;12.09;45.76
22000;BME280;11164;48.818;2.322;2023-04-15T01:28:18;99430.50;;;12.07;45.67
22000;BME280;11164;48.818;2.322;2023-04-15T01:30:43;99430.59;;;12.12;45.67
22000;BME280;11164;48.818;2.322;2023-04-15T01:33:09;99423.22;;;11.96;45.90
22000;BME280;11164;48.818;2.322;2023-04-15T01:35:34;99427.56;;;12.09;45.70
22000;BME280;11164;48.818;2.322;2023-04-15T01:38:05;99435.19;;;12.12;45.81
22000;BME280;11164;48.818;2.322;2023-04-15T01:40:31;99438.94;;;12.11;45.77
22000;BME280;11164;48.818;2.322;2023-04-15T01:42:56;99439.78;;;11.99;46.01
22000;BME280;11164;48.818;2.322;2023-04-15T01:45:21;99437.09;;;11.99;46.15
22000;BME280;11164;48.818;2.322;2023-04-15T01:47:47;99437.56;;;11.96;46.08
22000;BME280;11164;48.818;2.322;2023-04-15T01:50:13;99440.25;;;11.96;46.19
22000;BME280;11164;48.818;2.322;2023-04-15T01:52:39;99438.13;;;11.98;46.35
22000;BME280;11164;48.818;2.322;2023-04-15T01:55:05;99439.09;;;11.92;46.32
22000;BME280;11164;48.818;2.322;2023-04-15T01:57:32;99447.44;;;11.79;46.56
22000;BME280;11164;48.818;2.322;2023-04-15T01:59:58;99445.06;;;11.82;46.58
22000;BME280;11164;48.818;2.322;2023-04-15T02:02:23;99436.75;;;11.84;46.65
22000;BME280;11164;48.818;2.322;2023-04-15T02:04:49;99439.09;;;11.92;46.47
22000;BME280;11164;48.818;2.322;2023-04-15T02:07:15;99452.94;;;11.84;47.02
22000;BME280;11164;48.818;2.322;2023-04-15T02:09:40;99449.97;;;11.62;46.91
22000;BME280;11164;48.818;2.322;2023-04-15T02:12:05;99448.84;;;11.81;46.71
22000;BME280;11164;48.818;2.322;2023-04-15T02:14:31;99458.78;;;11.57;47.38
22000;BME280;11164;48.818;2.322;2023-04-15T02:16:56;99455.22;;;11.33;48.15
22000;BME280;11164;48.818;2.322;2023-04-15T02:19:21;99453.06;;;11.23;48.50
22000;BME280;11164;48.818;2.322;2023-04-15T02:21:47;99462.91;;;11.18;48.85
22000;BME280;11164;48.818;2.322;2023-04-15T02:24:12;99453.75;;;11.19;48.84
22000;BME280;11164;48.818;2.322;2023-04-15T02:26:37;99466.00;;;11.33;48.53
22000;BME280;11164;48.818;2.322;2023-04-15T02:29:03;99468.44;;;11.23;48.81
22000;BME280;11164;48.818;2.322;2023-04-15T02:31:28;99472.91;;;11.29;49.02
22000;BME280;11164;48.818;2.322;2023-04-15T02:33:54;99471.41;;;11.33;48.72
22000;BME280;11164;48.818;2.322;2023-04-15T02:36:19;99461.63;;;11.20;49.33
22000;BME280;11164;48.818;2.322;2023-04-15T02:38:45;99477.81;;;11.09;49.04
22000;BME280;11164;48.818;2.322;2023-04-15T02:41:10;99471.72;;;10.83;49.98
22000;BME280;11164;48.818;2.322;2023-04-15T02:43:36;99474.22;;;10.66;50.52
22000;BME280;11164;48.818;2.322;2023-04-15T02:46:02;99482.00;;;10.74;50.24
22000;BME280;11164;48.818;2.322;2023-04-15T02:48:28;99489.31;;;10.85;49.63
22000;BME280;11164;48.818;2.322;2023-04-15T02:50:53;99494.75;;;10.97;49.81
22000;BME280;11164;48.818;2.322;2023-04-15T02:53:18;99503.50;;;10.93;49.63
22000;BME280;11164;48.818;2.322;2023-04-15T02:55:44;99501.56;;;11.00;49.65
22000;BME280;11164;48.818;2.322;2023-04-15T02:58:10;99507.72;;;11.19;48.85
22000;BME280;11164;48.818;2.322;2023-04-15T03:00:35;99520.97;;;11.20;49.03
22000;BME280;11164;48.818;2.322;2023-04-15T03:03:02;99521.25;;;11.31;48.60
22000;BME280;11164;48.818;2.322;2023-04-15T03:05:28;99520.63;;;11.17;49.04
22000;BME280;11164;48.818;2.322;2023-04-15T03:07:53;99527.72;;;11.30;48.58
22000;BME280;11164;48.818;2.322;2023-04-15T03:10:19;99534.47;;;11.20;49.39
22000;BME280;11164;48.818;2.322;2023-04-15T03:12:45;99536.94;;;10.92;49.58
22000;BME280;11164;48.818;2.322;2023-04-15T03:15:10;99539.22;;;11.06;49.27
22000;BME280;11164;48.818;2.322;2023-04-15T03:17:36;99540.59;;;10.97;49.79
22000;BME280;11164;48.818;2.322;2023-04-15T03:20:02;99547.81;;;11.03;49.55
22000;BME280;11164;48.818;2.322;2023-04-15T03:22:30;99544.53;;;11.13;49.36
22000;BME280;11164;48.818;2.322;2023-04-15T03:24:55;99545.78;;;11.29;48.73
22000;BME280;11164;48.818;2.322;2023-04-15T03:27:21;99546.88;;;11.10;49.38
22000;BME280;11164;48.818;2.322;2023-04-15T03:29:46;99562.25;;;11.09;49.45
22000;BME280;11164;48.818;2.322;2023-04-15T03:32:11;99559.63;;;11.02;49.89
22000;BME280;11164;48.818;2.322;2023-04-15T03:34:39;99556.28;;;11.19;49.54
22000;BME280;11164;48.818;2.322;2023-04-15T03:37:04;99562.56;;;11.31;48.84
22000;BME280;11164;48.818;2.322;2023-04-15T03:39:30;99558.28;;;10.93;49.92
22000;BME280;11164;48.818;2.322;2023-04-15T03:41:55;99566.84;;;10.90;50.39
22000;BME280;11164;48.818;2.322;2023-04-15T03:44:21;99578.13;;;10.99;49.56
22000;BME280;11164;48.818;2.322;2023-04-15T03:46:47;99589.88;;;11.04;49.67
22000;BME280;11164;48.818;2.322;2023-04-15T03:49:12;99585.38;;;11.17;49.49
22000;BME280;11164;48.818;2.322;2023-04-15T03:51:38;99592.09;;;10.77;50.61
22000;BME280;11164;48.818;2.322;2023-04-15T03:54:03;99590.38;;;10.58;50.82
22000;BME280;11164;48.818;2.322;2023-04-15T03:56:28;99587.09;;;10.56;50.82
22000;BME280;11164;48.818;2.322;2023-04-15T03:58:54;99589.69;;;10.69;50.75
22000;BME280;11164;48.818;2.322;2023-04-15T04:01:19;99600.97;;;10.59;50.25
22000;BME280;11164;48.818;2.322;2023-04-15T04:03:45;99598.22;;;10.66;50.28
22000;BME280;11164;48.818;2.322;2023-04-15T04:06:10;99612.28;;;10.68;50.35
22000;BME280;11164;48.818;2.322;2023-04-15T04:08:36;99608.34;;;10.71;49.78
22000;BME280;11164;48.818;2.322;2023-04-15T04:11:02;99610.28;;;10.38;50.88
22000;BME280;11164;48.818;2.322;2023-04-15T04:13:28;99606.66;;;10.26;51.42
22000;BME280;11164;48.818;2.322;2023-04-15T04:15:53;99625.84;;;10.11;51.55
22000;BME280;11164;48.818;2.322;2023-04-15T04:18:18;99610.94;;;10.34;51.06
22000;BME280;11164;48.818;2.322;2023-04-15T04:20:44;99614.38;;;10.66;49.96
22000;BME280;11164;48.818;2.322;2023-04-15T04:23:10;99612.53;;;10.85;49.41
22000;BME280;11164;48.818;2.322;2023-04-15T04:25:35;99619.19;;;10.82;49.28
22000;BME280;11164;48.818;2.322;2023-04-15T04:28:00;99626.53;;;10.75;49.38
22000;BME280;11164;48.818;2.322;2023-04-15T04:30:26;99627.06;;;10.65;50.20
22000;BME280;11164;48.818;2.322;2023-04-15T04:32:51;99619.03;;;10.59;49.87
22000;BME280;11164;48.818;2.322;2023-04-15T04:35:16;99625.34;;;10.71;49.47
22000;BME280;11164;48.818;2.322;2023-04-15T04:37:42;99631.25;;;10.80;49.46
22000;BME280;11164;48.818;2.322;2023-04-15T04:40:07;99636.13;;;10.71;49.57
22000;BME280;11164;48.818;2.322;2023-04-15T04:42:33;99631.56;;;10.46;49.98
22000;BME280;11164;48.818;2.322;2023-04-15T04:44:59;99652.28;;;10.71;49.63
22000;BME280;11164;48.818;2.322;2023-04-15T04:47:24;99646.28;;;10.44;50.31
22000;BME280;11164;48.818;2.322;2023-04-15T04:49:49;99639.34;;;10.55;50.24
22000;BME280;11164;48.818;2.322;2023-04-15T04:52:15;99658.06;;;10.75;49.64
22000;BME280;11164;48.818;2.322;2023-04-15T04:54:40;99651.56;;;10.57;50.03
22000;BME280;11164;48.818;2.322;2023-04-15T04:57:05;99659.63;;;10.82;49.42
22000;BME280;11164;48.818;2.322;2023-04-15T04:59:32;99665.03;;;10.57;49.97
22000;BME280;11164;48.818;2.322;2023-04-15T05:01:57;99668.56;;;10.58;50.21
22000;BME280;11164;48.818;2.322;2023-04-15T05:04:23;99679.78;;;10.80;49.46
22000;BME280;11164;48.818;2.322;2023-04-15T05:06:49;99677.59;;;10.70;49.68
22000;BME280;11164;48.818;2.322;2023-04-15T05:09:15;99682.03;;;10.58;50.29
22000;BME280;11164;48.818;2.322;2023-04-15T05:11:40;99678.66;;;10.69;49.93
22000;BME280;11164;48.818;2.322;2023-04-15T05:14:05;99692.50;;;10.73;49.64
22000;BME280;11164;48.818;2.322;2023-04-15T05:16:31;99696.53;;;10.63;49.75
22000;BME280;11164;48.818;2.322;2023-04-15T05:18:56;99700.06;;;10.82;49.50
22000;BME280;11164;48.818;2.322;2023-04-15T05:21:22;99700.38;;;10.74;49.54
22000;BME280;11164;48.818;2.322;2023-04-15T05:23:47;99711.38;;;10.73;49.64
22000;BME280;11164;48.818;2.322;2023-04-15T05:26:12;99712.38;;;10.78;49.78
22000;BME280;11164;48.818;2.322;2023-04-15T05:28:38;99726.28;;;10.75;49.56
22000;BME280;11164;48.818;2.322;2023-04-15T05:31:03;99728.44;;;10.66;49.97
22000;BME280;11164;48.818;2.322;2023-04-15T05:33:29;99733.41;;;10.38;50.58
22000;BME280;11164;48.818;2.322;2023-04-15T05:35:54;99744.84;;;10.33;50.62
22000;BME280;11164;48.818;2.322;2023-04-15T05:38:19;99739.44;;;10.33;50.94
22000;BME280;11164;48.818;2.322;2023-04-15T05:40:45;99745.19;;;10.43;50.81
22000;BME280;11164;48.818;2.322;2023-04-15T05:43:10;99737.44;;;10.54;50.49
22000;BME280;11164;48.818;2.322;2023-04-15T05:45:35;99751.06;;;10.65;49.82
22000;BME280;11164;48.818;2.322;2023-04-15T05:48:01;99753.75;;;10.65;50.42
22000;BME280;11164;48.818;2.322;2023-04-15T05:50:26;99757.22;;;10.73;50.05
22000;BME280;11164;48.818;2.322;2023-04-15T05:52:51;99764.41;;;10.79;50.12
22000;BME280;11164;48.818;2.322;2023-04-15T05:55:17;99768.50;;;10.63;50.84
22000;BME280;11164;48.818;2.322;2023-04-15T05:57:42;99780.66;;;10.72;50.47
22000;BME280;11164;48.818;2.322;2023-04-15T06:00:08;99781.69;;;10.96;49.67
22000;BME280;11164;48.818;2.322;2023-04-15T06:02:34;99784.53;;;10.83;50.11
22000;BME280;11164;48.818;2.322;2023-04-15T06:04:59;99791.72;;;10.57;50.71
22000;BME280;11164;48.818;2.322;2023-04-15T06:07:25;99787.28;;;10.44;51.39
22000;BME280;11164;48.818;2.322;2023-04-15T06:09:50;99796.00;;;10.72;50.37
22000;BME280;11164;48.818;2.322;2023-04-15T06:12:16;99800.97;;;10.75;50.56
22000;BME280;11164;48.818;2.322;2023-04-15T06:14:41;99808.56;;;10.84;50.24
22000;BME280;11164;48.818;2.322;2023-04-15T06:17:06;99808.75;;;10.51;51.25
22000;BME280;11164;48.818;2.322;2023-04-15T06:19:32;99818.72;;;10.82;50.10
22000;BME280;11164;48.818;2.322;2023-04-15T06:21:58;99827.19;;;10.54;50.58
22000;BME280;11164;48.818;2.322;2023-04-15T06:24:24;99837.66;;;10.37;51.31
22000;BME280;11164;48.818;2.322;2023-04-15T06:26:49;99833.19;;;10.63;50.56
22000;BME280;11164;48.818;2.322;2023-04-15T06:29:15;99839.69;;;10.80;50.19
22000;BME280;11164;48.818;2.322;2023-04-15T06:31:40;99850.03;;;10.58;51.09
22000;BME280;11164;48.818;2.322;2023-04-15T06:34:06;99863.75;;;10.43;51.58
22000;BME280;11164;48.818;2.322;2023-04-15T06:36:31;99864.75;;;10.49;51.42
22000;BME280;11164;48.818;2.322;2023-04-15T06:38:56;99871.41;;;10.85;50.21
22000;BME280;11164;48.818;2.322;2023-04-15T06:41:22;99879.78;;;10.70;50.90
22000;BME280;11164;48.818;2.322;2023-04-15T06:43:47;99875.03;;;10.72;51.00
22000;BME280;11164;48.818;2.322;2023-04-15T06:46:12;99888.03;;;10.82;50.70
22000;BME280;11164;48.818;2.322;2023-04-15T06:48:38;99886.16;;;10.82;50.62
22000;BME280;11164;48.818;2.322;2023-04-15T06:51:03;99898.50;;;10.65;51.34
22000;BME280;11164;48.818;2.322;2023-04-15T06:53:29;99902.59;;;11.06;50.48
22000;BME280;11164;48.818;2.322;2023-04-15T06:55:54;99909.81;;;10.80;50.98
22000;BME280;11164;48.818;2.322;2023-04-15T06:58:20;99910.91;;;11.04;50.42
22000;BME280;11164;48.818;2.322;2023-04-15T07:00:46;99917.41;;;11.22;50.20
22000;BME280;11164;48.818;2.322;2023-04-15T07:03:12;99916.56;;;10.96;50.78
22000;BME280;11164;48.818;2.322;2023-04-15T07:05:38;99924.94;;;11.13;50.37
22000;BME280;11164;48.818;2.322;2023-04-15T07:08:04;99932.63;;;11.16;50.22
22000;BME280;11164;48.818;2.322;2023-04-15T07:10:29;99940.94;;;11.40;49.72
22000;BME280;11164;48.818;2.322;2023-04-15T07:12:55;99933.03;;;11.45;49.72
22000;BME280;11164;48.818;2.322;2023-04-15T07:15:21;99951.66;;;11.21;50.52
22000;BME280;11164;48.818;2.322;2023-04-15T07:17:46;99954.81;;;11.18;50.30
22000;BME280;11164;48.818;2.322;2023-04-15T07:20:12;99954.97;;;11.23;50.19
22000;BME280;11164;48.818;2.322;2023-04-15T07:22:38;99964.63;;;11.38;49.86
22000;BME280;11164;48.818;2.322;2023-04-15T07:25:04;99958.78;;;11.16;50.01
22000;BME280;11164;48.818;2.322;2023-04-15T07:27:29;99970.81;;;11.13;50.31
22000;BME280;11164;48.818;2.322;2023-04-15T07:29:55;99973.66;;;11.25;50.20
22000;BME280;11164;48.818;2.322;2023-04-15T07:32:20;99976.38;;;10.86;51.16
22000;BME280;11164;48.818;2.322;2023-04-15T07:34:45;99985.44;;;10.99;50.92
22000;BME280;11164;48.818;2.322;2023-04-15T07:37:11;99992.78;;;11.17;50.43
22000;BME280;11164;48.818;2.322;2023-04-15T07:39:36;99996.63;;;11.34;49.97
22000;BME280;11164;48.818;2.322;2023-04-15T07:42:02;100000.50;;;11.13;50.41
22000;BME280;11164;48.818;2.322;2023-04-15T07:44:28;100010.31;;;11.01;51.08
22000;BME280;11164;48.818;2.322;2023-04-15T07:46:54;100009.19;;;11.15;50.32
22000;BME280;11164;48.818;2.322;2023-04-15T07:49:20;100020.13;;;10.88;50.75
22000;BME280;11164;48.818;2.322;2023-04-15T07:51:45;100020.16;;;11.20;50.03
22000;BME280;11164;48.818;2.322;2023-04-15T07:54:11;100041.13;;;11.25;50.13
22000;BME280;11164;48.818;2.322;2023-04-15T07:56:36;100041.44;;;11.42;49.62
22000;BME280;11164;48.818;2.322;2023-04-15T07:59:02;100040.94;;;11.52;49.29
22000;BME280;11164;48.818;2.322;2023-04-15T08:01:29;100045.34;;;11.46;49.16
22000;BME280;11164;48.818;2.322;2023-04-15T08:03:54;100048.47;;;11.43;49.27
22000;BME280;11164;48.818;2.322;2023-04-15T08:06:21;100064.09;;;10.96;50.24
22000;BME280;11164;48.818;2.322;2023-04-15T08:08:46;100057.56;;;11.10;49.64
22000;BME280;11164;48.818;2.322;2023-04-15T08:11:12;100068.91;;;11.25;49.22
22000;BME280;11164;48.818;2.322;2023-04-15T08:13:37;100077.47;;;11.22;49.50
22000;BME280;11164;48.818;2.322;2023-04-15T08:16:32;100083.91;;;11.21;52.50
22000;BME280;11164;48.818;2.322;2023-04-15T08:18:57;100082.94;;;11.09;50.30
22000;BME280;11164;48.818;2.322;2023-04-15T08:21:23;100087.13;;;10.98;50.63
22000;BME280;11164;48.818;2.322;2023-04-15T08:23:50;100096.19;;;11.11;50.30
22000;BME280;11164;48.818;2.322;2023-04-15T08:26:16;100099.88;;;11.23;49.93
22000;BME280;11164;48.818;2.322;2023-04-15T08:28:43;100107.09;;;11.29;49.96
22000;BME280;11164;48.818;2.322;2023-04-15T08:31:09;100118.47;;;11.38;50.11
22000;BME280;11164;48.818;2.322;2023-04-15T08:33:34;100116.41;;;11.40;49.96
22000;BME280;11164;48.818;2.322;2023-04-15T08:36:00;100117.63;;;11.44;50.05
22000;BME280;11164;48.818;2.322;2023-04-15T08:38:25;100131.78;;;11.33;50.47
22000;BME280;11164;48.818;2.322;2023-04-15T08:40:51;100134.13;;;11.22;50.91
22000;BME280;11164;48.818;2.322;2023-04-15T08:43:23;100134.31;;;11.28;51.08
22000;BME280;11164;48.818;2.322;2023-04-15T08:45:53;100147.94;;;11.39;50.85
22000;BME280;11164;48.818;2.322;2023-04-15T08:48:19;100149.81;;;11.46;50.78
22000;BME280;11164;48.818;2.322;2023-04-15T08:50:46;100147.91;;;11.53;50.67
22000;BME280;11164;48.818;2.322;2023-04-15T08:53:12;100157.41;;;11.55;50.84
22000;BME280;11164;48.818;2.322;2023-04-15T08:55:43;100166.44;;;11.74;51.17
22000;BME280;11164;48.818;2.322;2023-04-15T08:58:10;100169.59;;;11.71;50.85
22000;BME280;11164;48.818;2.322;2023-04-15T09:00:36;100170.06;;;11.61;51.25
22000;BME280;11164;48.818;2.322;2023-04-15T09:03:04;100181.25;;;11.65;51.30
22000;BME280;11164;48.818;2.322;2023-04-15T09:05:39;100188.75;;;11.63;51.94
22000;BME280;11164;48.818;2.322;2023-04-15T09:08:05;100185.28;;;11.49;53.20
22000;BME280;11164;48.818;2.322;2023-04-15T09:10:31;100193.56;;;11.61;51.45
22000;BME280;11164;48.818;2.322;2023-04-15T09:12:57;100202.31;;;11.50;51.70
22000;BME280;11164;48.818;2.322;2023-04-15T09:15:26;100203.59;;;11.40;52.06
22000;BME280;11164;48.818;2.322;2023-04-15T09:17:54;100199.44;;;11.44;51.61
22000;BME280;11164;48.818;2.322;2023-04-15T09:20:19;100218.72;;;11.48;51.41
22000;BME280;11164;48.818;2.322;2023-04-15T09:22:46;100221.16;;;11.63;50.84
22000;BME280;11164;48.818;2.322;2023-04-15T09:27:51;100225.63;;;11.31;52.09
22000;BME280;11164;48.818;2.322;2023-04-15T09:30:17;100245.94;;;11.47;51.07
22000;BME280;11164;48.818;2.322;2023-04-15T09:35:22;100247.94;;;11.78;50.63
22000;BME280;11164;48.818;2.322;2023-04-15T09:37:48;100252.47;;;11.84;50.73
22000;BME280;11164;48.818;2.322;2023-04-15T09:40:14;100254.56;;;12.14;50.35
22000;BME280;11164;48.818;2.322;2023-04-15T09:42:55;100262.25;;;12.17;50.48
22000;BME280;11164;48.818;2.322;2023-04-15T09:45:21;100267.06;;;12.15;50.69
22000;BME280;11164;48.818;2.322;2023-04-15T09:47:47;100278.69;;;12.47;50.47
22000;BME280;11164;48.818;2.322;2023-04-15T09:50:12;100282.13;;;12.93;49.55
22000;BME280;11164;48.818;2.322;2023-04-15T09:52:43;100287.63;;;13.05;49.62
22000;BME280;11164;48.818;2.322;2023-04-15T09:55:09;100288.28;;;13.00;49.68
22000;BME280;11164;48.818;2.322;2023-04-15T09:57:36;100303.88;;;12.73;50.20
22000;BME280;11164;48.818;2.322;2023-04-15T10:00:06;100300.06;;;12.55;50.35
22000;BME280;11164;48.818;2.322;2023-04-15T10:02:33;100308.84;;;12.76;50.27
22000;BME280;11164;48.818;2.322;2023-04-15T10:04:58;100315.09;;;12.76;50.38
22000;BME280;11164;48.818;2.322;2023-04-15T10:07:25;100322.03;;;12.98;50.02
22000;BME280;11164;48.818;2.322;2023-04-15T10:09:51;100326.63;;;12.65;50.73
22000;BME280;11164;48.818;2.322;2023-04-15T10:12:18;100332.03;;;12.97;50.10
22000;BME280;11164;48.818;2.322;2023-04-15T10:14:44;100325.47;;;12.80;50.72
22000;BME280;11164;48.818;2.322;2023-04-15T10:17:13;100341.09;;;13.09;50.27
22000;BME280;11164;48.818;2.322;2023-04-15T10:19:42;100325.91;;;13.52;49.47
22000;BME280;11164;48.818;2.322;2023-04-15T10:22:07;100341.38;;;13.63;49.68
22000;BME280;11164;48.818;2.322;2023-04-15T10:24:33;100347.34;;;13.54;49.72
22000;BME280;11164;48.818;2.322;2023-04-15T10:26:59;100348.34;;;13.78;49.49
22000;BME280;11164;48.818;2.322;2023-04-15T10:29:25;100345.38;;;13.61;49.79
22000;BME280;11164;48.818;2.322;2023-04-15T10:31:53;100345.91;;;13.69;49.94
22000;BME280;11164;48.818;2.322;2023-04-15T10:34:19;100352.28;;;13.57;49.94
22000;BME280;11164;48.818;2.322;2023-04-15T10:36:45;100355.50;;;13.28;50.40
22000;BME280;11164;48.818;2.322;2023-04-15T10:42:17;100369.31;;;13.82;48.46
22000;BME280;11164;48.818;2.322;2023-04-15T10:44:55;100365.53;;;13.65;47.84
22000;BME280;11164;48.818;2.322;2023-04-15T10:47:21;100377.28;;;13.77;49.53
22000;BME280;11164;48.818;2.322;2023-04-15T10:49:51;100375.81;;;14.00;47.70
22000;BME280;11164;48.818;2.322;2023-04-15T10:52:21;100375.03;;;13.56;49.87
22000;BME280;11164;48.818;2.322;2023-04-15T10:54:47;100386.84;;;13.61;49.91
22000;BME280;11164;48.818;2.322;2023-04-15T10:57:21;100376.56;;;14.07;46.21
22000;BME280;11164;48.818;2.322;2023-04-15T10:59:59;100384.09;;;14.23;45.15
22000;BME280;11164;48.818;2.322;2023-04-15T11:02:51;100393.41;;;14.28;48.00
22000;BME280;11164;48.818;2.322;2023-04-15T11:05:18;100398.31;;;14.19;48.78
22000;BME280;11164;48.818;2.322;2023-04-15T11:07:51;100404.28;;;14.09;48.84
22000;BME280;11164;48.818;2.322;2023-04-15T11:12:44;100414.13;;;14.03;48.46
22000;BME280;11164;48.818;2.322;2023-04-15T11:20:35;100420.50;;;14.46;47.20
22000;BME280;11164;48.818;2.322;2023-04-15T11:23:00;100415.56;;;13.87;47.92
22000;BME280;11164;48.818;2.322;2023-04-15T11:25:26;100430.63;;;14.20;47.25
22000;BME280;11164;48.818;2.322;2023-04-15T11:27:53;100423.41;;;14.14;47.28
22000;BME280;11164;48.818;2.322;2023-04-15T11:30:21;100428.50;;;13.85;46.39
22000;BME280;11164;48.818;2.322;2023-04-15T11:32:50;100435.75;;;14.29;46.79
22000;BME280;11164;48.818;2.322;2023-04-15T11:35:17;100437.22;;;14.61;45.87
22000;BME280;11164;48.818;2.322;2023-04-15T11:37:43;100440.16;;;14.60;45.97
22000;BME280;11164;48.818;2.322;2023-04-15T11:40:10;100451.75;;;14.67;45.77
22000;BME280;11164;48.818;2.322;2023-04-15T11:42:36;100451.66;;;14.25;46.23
22000;BME280;11164;48.818;2.322;2023-04-15T11:45:11;100459.59;;;14.57;44.83
22000;BME280;11164;48.818;2.322;2023-04-15T11:47:38;100469.13;;;14.96;45.19
22000;BME280;11164;48.818;2.322;2023-04-15T11:50:22;100470.28;;;14.89;43.91
22000;BME280;11164;48.818;2.322;2023-04-15T11:52:57;100478.75;;;14.62;44.66
22000;BME280;11164;48.818;2.322;2023-04-15T11:55:23;100478.41;;;14.21;46.36
22000;BME280;11164;48.818;2.322;2023-04-15T11:57:50;100482.75;;;14.22;46.19
22000;BME280;11164;48.818;2.322;2023-04-15T12:00:15;100479.00;;;14.23;45.75
22000;BME280;11164;48.818;2.322;2023-04-15T12:02:42;100486.78;;;14.38;45.36
22000;BME280;11164;48.818;2.322;2023-04-15T12:05:08;100492.88;;;13.65;46.59
22000;BME280;11164;48.818;2.322;2023-04-15T12:07:57;100496.91;;;13.81;43.17
22000;BME280;11164;48.818;2.322;2023-04-15T12:10:25;100501.06;;;13.83;45.03
22000;BME280;11164;48.818;2.322;2023-04-15T12:12:53;100513.84;;;13.76;45.49
22000;BME280;11164;48.818;2.322;2023-04-15T12:15:23;100514.75;;;14.14;44.72
22000;BME280;11164;48.818;2.322;2023-04-15T12:17:48;100533.56;;;14.09;44.46
22000;BME280;11164;48.818;2.322;2023-04-15T12:20:20;100522.66;;;14.15;44.50
22000;BME280;11164;48.818;2.322;2023-04-15T12:22:46;100527.00;;;14.23;44.62
22000;BME280;11164;48.818;2.322;2023-04-15T12:25:11;100528.56;;;14.31;44.71
22000;BME280;11164;48.818;2.322;2023-04-15T12:27:37;100531.22;;;14.56;44.19
22000;BME280;11164;48.818;2.322;2023-04-15T12:30:06;100538.97;;;14.34;44.16
22000;BME280;11164;48.818;2.322;2023-04-15T12:32:34;100548.31;;;14.19;44.52
22000;BME280;11164;48.818;2.322;2023-04-15T12:35:00;100557.72;;;14.35;44.11
22000;BME280;11164;48.818;2.322;2023-04-15T12:37:25;100546.50;;;14.50;43.98
22000;BME280;11164;48.818;2.322;2023-04-15T12:39:51;100564.56;;;14.38;44.03
22000;BME280;11164;48.818;2.322;2023-04-15T12:42:18;100567.56;;;14.11;44.36
22000;BME280;11164;48.818;2.322;2023-04-15T12:44:43;100568.75;;;13.97;44.49
22000;BME280;11164;48.818;2.322;2023-04-15T12:47:10;100554.84;;;13.86;44.60
22000;BME280;11164;48.818;2.322;2023-04-15T12:49:35;100572.44;;;14.02;44.34
22000;BME280;11164;48.818;2.322;2023-04-15T12:52:02;100585.00;;;13.97;44.39
22000;BME280;11164;48.818;2.322;2023-04-15T12:54:28;100584.22;;;13.90;44.45
22000;BME280;11164;48.818;2.322;2023-04-15T12:56:55;100593.63;;;13.80;44.43
22000;BME280;11164;48.818;2.322;2023-04-15T12:59:20;100593.97;;;13.97;44.02
22000;BME280;11164;48.818;2.322;2023-04-15T13:01:48;100604.00;;;14.15;43.72
22000;BME280;11164;48.818;2.322;2023-04-15T13:04:14;100598.38;;;14.17;43.81
22000;BME280;11164;48.818;2.322;2023-04-15T13:06:40;100610.44;;;14.65;43.01